createdAt,value
2018-09-11T06:05:54.975Z,51.80
2018-09-11T06:08:24.586Z,53.50
2018-09-11T06:10:54.213Z,56.40
2018-09-11T06:13:24.814Z,58.10
2018-09-11T06:15:54.749Z,58.40
2018-09-11T06:18:24.742Z,58.90
2018-09-11T06:20:53.956Z,59.30
2018-09-11T06:23:23.191Z,59.20
2018-09-11T06:25:52.403Z,59.10
2018-09-11T06:28:21.543Z,59.50
2018-09-11T06:30:50.667Z,57.70
2018-09-11T06:33:19.797Z,56.90
2018-09-11T06:35:48.977Z,56.40
2018-09-11T06:38:18.137Z,56.10
2018-09-11T06:40:47.474Z,55.80
2018-09-11T06:43:16.795Z,55.90
2018-09-11T06:45:45.933Z,56.30
2018-09-11T06:48:15.056Z,56.60
2018-09-11T06:50:44.201Z,56.60
2018-09-11T06:53:13.400Z,56.60
2018-09-11T06:55:42.625Z,56.40
2018-09-11T06:58:11.795Z,56.50
2018-09-11T07:00:40.998Z,56.10
2018-09-11T07:03:10.251Z,57.00
2018-09-11T07:05:39.419Z,56.20
2018-09-11T07:08:08.534Z,56.50
2018-09-11T07:10:37.667Z,55.80
2018-09-11T07:13:07.528Z,55.80
2018-09-11T07:15:36.794Z,55.90
2018-09-11T07:18:05.830Z,55.50
2018-09-11T07:20:35.004Z,55.90
2018-09-11T07:23:04.233Z,55.60
2018-09-11T07:25:33.765Z,55.10
2018-09-11T07:28:02.820Z,54.60
2018-09-11T07:30:32.084Z,54.30
2018-09-11T07:33:01.154Z,54.10
2018-09-11T07:35:30.153Z,54.20
2018-09-11T07:37:59.277Z,54.20
2018-09-11T07:40:28.192Z,54.10
2018-09-11T07:42:57.435Z,53.70
2018-09-11T07:45:26.610Z,53.70
2018-09-11T07:47:55.629Z,53.50
2018-09-11T07:50:24.931Z,53.70
2018-09-11T07:52:54.005Z,53.90
2018-09-11T07:55:23.196Z,53.20
2018-09-11T07:57:52.278Z,53.20
2018-09-11T08:00:21.307Z,53.10
2018-09-11T08:02:50.320Z,53.40
2018-09-11T08:05:19.369Z,53.80
2018-09-11T08:07:48.714Z,53.80
2018-09-11T08:10:17.877Z,53.80
2018-09-11T08:12:46.723Z,53.70
2018-09-11T08:15:16.001Z,53.40
2018-09-11T08:17:45.043Z,53.50
2018-09-11T08:20:14.221Z,53.50
2018-09-11T08:22:43.356Z,53.60
2018-09-11T08:25:12.552Z,53.20
2018-09-11T08:27:41.721Z,53.00
2018-09-11T08:30:10.883Z,53.10
2018-09-11T08:32:40.186Z,53.20
2018-09-11T08:35:09.257Z,53.00
2018-09-11T08:37:38.338Z,53.10
2018-09-11T08:40:07.784Z,53.20
2018-09-11T08:42:36.958Z,52.80
2018-09-11T08:45:06.869Z,52.70
2018-09-11T08:47:36.137Z,52.40
2018-09-11T08:50:39.160Z,52.40
2018-09-11T08:53:08.925Z,52.30
2018-09-11T08:55:39.001Z,52.20
2018-09-11T08:58:09.350Z,52.60
2018-09-11T09:00:39.444Z,52.20
2018-09-11T09:03:09.301Z,52.40
2018-09-11T09:05:39.392Z,52.30
2018-09-11T09:08:09.361Z,52.30
2018-09-11T09:10:39.280Z,52.10
2018-09-11T09:13:09.358Z,51.90
2018-09-11T09:15:39.376Z,51.80
2018-09-11T09:18:09.615Z,51.70
2018-09-11T09:20:39.417Z,51.60
2018-09-11T09:23:09.524Z,51.70
2018-09-11T09:25:40.121Z,51.70
2018-09-11T09:28:10.756Z,51.50
2018-09-11T09:30:41.298Z,51.50
2018-09-11T09:33:11.481Z,51.60
2018-09-11T09:35:41.559Z,51.40
2018-09-11T09:38:11.769Z,51.00
2018-09-11T09:40:42.169Z,51.50
2018-09-11T09:43:12.260Z,51.20
2018-09-11T09:45:41.980Z,50.90
2018-09-11T09:48:12.178Z,50.90
2018-09-11T09:50:42.184Z,51.10
2018-09-11T09:53:12.620Z,51.20
2018-09-11T09:55:43.060Z,51.00
2018-09-11T09:58:13.213Z,50.80
2018-09-11T10:00:47.473Z,50.80
2018-09-11T10:03:18.536Z,50.70
2018-09-11T10:05:48.738Z,50.60
2018-09-11T11:03:08.787Z,50.60
2018-09-11T11:05:38.611Z,50.60
2018-09-11T11:08:08.548Z,50.40
2018-09-11T11:10:38.249Z,50.40
2018-09-11T11:13:08.411Z,50.20
2018-09-11T11:15:38.571Z,50.40
2018-09-11T11:18:08.719Z,50.10
2018-09-11T11:20:40.136Z,50.00
2018-09-11T11:23:10.084Z,50.20
2018-09-11T11:25:40.339Z,50.40
2018-09-11T11:28:10.493Z,50.10
2018-09-11T11:30:40.999Z,50.60
2018-09-11T11:33:11.282Z,50.30
2018-09-11T11:35:41.246Z,50.20
2018-09-11T11:38:11.714Z,50.40
2018-09-11T11:40:42.074Z,50.70
2018-09-11T11:43:13.018Z,51.10
2018-09-11T11:45:43.685Z,51.20
2018-09-11T11:48:13.663Z,51.40
2018-09-11T11:50:43.526Z,51.40
2018-09-11T11:53:13.451Z,51.20
2018-09-11T11:55:43.599Z,51.30
2018-09-11T11:58:14.199Z,51.40
2018-09-11T12:00:44.380Z,51.40
2018-09-11T12:03:14.517Z,51.20
2018-09-11T12:05:45.201Z,51.40
2018-09-11T12:08:15.211Z,51.20
2018-09-11T12:10:45.658Z,51.40
2018-09-11T12:13:16.084Z,51.40
2018-09-11T12:15:46.071Z,51.60
2018-09-11T12:18:16.956Z,51.50
2018-09-11T12:20:46.974Z,52.00
2018-09-11T12:23:16.781Z,51.30
2018-09-11T12:25:46.719Z,51.40
2018-09-11T12:28:16.909Z,51.70
2018-09-11T12:30:47.567Z,51.40
2018-09-11T12:33:17.385Z,51.40
2018-09-11T12:35:47.440Z,51.50
2018-09-11T12:38:17.518Z,51.70
2018-09-11T12:40:47.750Z,52.10
2018-09-11T12:43:17.659Z,52.10
2018-09-11T12:45:47.635Z,51.90
2018-09-11T12:48:18.046Z,51.90
2018-09-11T12:50:48.077Z,51.70
2018-09-11T12:53:17.882Z,51.70
2018-09-11T12:55:47.785Z,51.60
2018-09-11T12:58:18.072Z,51.60
2018-09-11T13:00:48.101Z,51.80
2018-09-11T13:03:18.106Z,51.80
2018-09-11T13:05:49.002Z,51.90
2018-09-11T13:08:19.368Z,51.90
2018-09-11T13:10:49.363Z,52.00
2018-09-11T13:13:19.181Z,51.90
2018-09-11T13:15:49.426Z,51.90
2018-09-11T13:18:19.651Z,52.50
2018-09-11T13:20:49.335Z,52.60
2018-09-11T13:23:19.772Z,52.20
2018-09-11T13:25:50.142Z,52.60
2018-09-11T13:28:20.003Z,52.40
2018-09-11T13:30:49.945Z,52.60
2018-09-11T13:33:20.484Z,52.90
2018-09-11T13:35:50.226Z,52.80
2018-09-11T13:38:21.027Z,52.60
2018-09-11T13:40:51.109Z,53.60
2018-09-11T13:43:21.123Z,52.50
2018-09-11T13:45:51.148Z,52.40
2018-09-11T13:48:21.234Z,52.40
2018-09-11T13:50:51.427Z,52.40
2018-09-11T13:53:21.635Z,53.00
2018-09-11T13:55:51.547Z,53.50
2018-09-11T13:58:21.384Z,52.90
2018-09-11T14:00:51.128Z,53.10
2018-09-11T14:03:20.867Z,53.00
2018-09-11T14:05:50.953Z,53.20
2018-09-11T14:08:21.039Z,52.90
2018-09-11T14:10:51.165Z,52.80
2018-09-11T14:13:21.127Z,53.10
2018-09-11T14:15:51.288Z,52.80
2018-09-11T14:18:21.425Z,52.60
2018-09-11T14:20:51.675Z,52.70
2018-09-11T14:23:22.648Z,52.60
2018-09-11T14:25:52.533Z,52.90
2018-09-11T14:28:22.846Z,53.30
2018-09-11T14:30:52.844Z,53.40
2018-09-11T14:33:23.122Z,53.30
2018-09-11T14:35:53.362Z,53.40
2018-09-11T14:38:23.585Z,53.90
2018-09-11T14:40:53.684Z,53.80
2018-09-11T14:43:23.425Z,54.10
2018-09-11T14:45:53.507Z,53.90
2018-09-11T14:48:23.832Z,54.10
2018-09-11T14:50:54.255Z,54.00
2018-09-11T14:53:24.312Z,54.50
2018-09-11T14:55:55.114Z,54.70
2018-09-11T14:58:24.799Z,54.20
2018-09-11T15:00:55.400Z,54.20
2018-09-11T15:03:25.353Z,54.40
2018-09-11T15:05:55.591Z,54.30
2018-09-11T15:08:25.224Z,54.50
2018-09-11T15:10:55.391Z,54.10
